createdAt,value
2019-05-25T00:02:42.718Z,96549.16
2019-05-25T00:07:37.301Z,96543.70
2019-05-25T00:12:31.896Z,96537.84
2019-05-25T00:17:26.466Z,96537.78
2019-05-25T00:22:21.060Z,96537.47
2019-05-25T00:27:15.637Z,96540.86
2019-05-25T00:32:10.250Z,96529.99
2019-05-25T00:37:04.887Z,96532.91
2019-05-25T00:41:59.480Z,96535.50
2019-05-25T00:46:54.057Z,96529.99
2019-05-25T00:51:48.680Z,96532.17
2019-05-25T00:56:43.245Z,96531.50
2019-05-25T01:01:37.839Z,96525.63
2019-05-25T01:06:32.418Z,96522.94
2019-05-25T01:11:27.013Z,96522.38
2019-05-25T01:16:21.667Z,96529.70
2019-05-25T01:21:16.265Z,96526.61
2019-05-25T01:26:10.891Z,96527.42
2019-05-25T01:31:05.559Z,96519.47
2019-05-25T01:36:00.132Z,96522.15
2019-05-25T01:40:54.734Z,96523.70
2019-05-25T01:45:49.312Z,96529.53
2019-05-25T01:50:44.090Z,96521.11
2019-05-25T01:55:38.673Z,96516.08
2019-05-25T02:00:33.410Z,96516.53
2019-05-25T02:05:27.993Z,96523.30
2019-05-25T02:10:22.580Z,96520.05
2019-05-25T02:15:17.396Z,96518.00
2019-05-25T02:20:12.568Z,96521.20
2019-05-25T02:25:17.511Z,96522.71
2019-05-25T02:30:09.439Z,96520.58
2019-05-25T02:35:05.875Z,96518.56
2019-05-25T02:40:00.471Z,96533.74
2019-05-25T02:44:55.054Z,96532.12
2019-05-25T02:49:49.651Z,96534.95
2019-05-25T02:54:44.231Z,96536.48
2019-05-25T02:59:38.828Z,96532.78
2019-05-25T03:04:33.545Z,96536.48
2019-05-25T03:09:30.423Z,96535.67
2019-05-25T03:14:24.994Z,96538.55
2019-05-25T03:19:19.609Z,96540.97
2019-05-25T03:24:14.197Z,96536.92
2019-05-25T03:29:08.793Z,96538.64
2019-05-25T03:34:03.391Z,96542.63
2019-05-25T03:38:57.970Z,96553.34
2019-05-25T03:43:52.549Z,96550.23
2019-05-25T03:48:47.154Z,96557.78
2019-05-25T03:53:41.722Z,96561.31
2019-05-25T03:58:36.388Z,96565.94
2019-05-25T04:03:30.966Z,96562.66
2019-05-25T04:08:25.646Z,96561.42
2019-05-25T04:13:20.229Z,96556.89
2019-05-25T04:18:14.824Z,96558.08
2019-05-25T04:23:09.394Z,96563.37
2019-05-25T04:28:04.068Z,96573.15
2019-05-25T04:32:58.656Z,96581.03
2019-05-25T04:37:53.252Z,96584.45
2019-05-25T04:42:47.841Z,96592.11
2019-05-25T04:47:42.444Z,96591.06
2019-05-25T04:52:40.988Z,96590.58
2019-05-25T04:57:33.485Z,96587.91
2019-05-25T05:02:28.047Z,96598.46
2019-05-25T05:07:22.637Z,96600.59
2019-05-25T05:12:17.211Z,96603.34
2019-05-25T05:17:11.815Z,96609.68
2019-05-25T05:22:06.420Z,96611.88
2019-05-25T05:27:01.090Z,96608.34
2019-05-25T05:31:55.732Z,96610.03
2019-05-25T05:36:51.734Z,96604.30
2019-05-25T05:41:50.724Z,96618.57
2019-05-25T05:46:50.036Z,96616.81
2019-05-25T05:51:49.192Z,96619.46
2019-05-25T05:56:43.813Z,96622.89
2019-05-25T06:01:38.381Z,96627.38
2019-05-25T06:06:32.989Z,96639.75
2019-05-25T06:11:27.571Z,96639.48
2019-05-25T06:16:22.181Z,96644.08
2019-05-25T06:21:16.762Z,96641.59
2019-05-25T06:26:11.440Z,96647.16
2019-05-25T06:31:06.073Z,96653.27
2019-05-25T06:36:00.689Z,96642.44
2019-05-25T06:40:55.273Z,96653.56
2019-05-25T06:45:49.879Z,96642.11
2019-05-25T06:50:44.461Z,96636.16
2019-05-25T06:55:39.068Z,96634.17
2019-05-25T07:00:33.678Z,96642.31
2019-05-25T07:05:28.364Z,96649.66
2019-05-25T07:10:23.019Z,96665.41
2019-05-25T07:15:18.404Z,96663.80
2019-05-25T07:20:14.018Z,96667.30
2019-05-25T07:25:09.634Z,96670.86
2019-05-25T07:30:06.591Z,96673.77
2019-05-25T07:35:01.953Z,96681.80
2019-05-25T07:39:56.556Z,96683.78
2019-05-25T07:44:51.148Z,96682.58
2019-05-25T07:49:45.722Z,96692.75
2019-05-25T07:54:40.392Z,96697.52
2019-05-25T07:59:34.975Z,96687.98
2019-05-25T08:04:29.580Z,96686.67
2019-05-25T08:09:24.156Z,96692.20
2019-05-25T08:14:18.830Z,96688.22
2019-05-25T08:19:13.477Z,96685.48
2019-05-25T08:24:08.146Z,96690.45
2019-05-25T08:29:02.790Z,96698.20
2019-05-25T08:33:57.405Z,96698.58
2019-05-25T08:38:54.815Z,96692.13
2019-05-25T08:43:48.331Z,96694.50
2019-05-25T08:48:42.942Z,96692.97
2019-05-25T08:53:41.794Z,96692.97
2019-05-25T08:58:47.616Z,96695.00
2019-05-25T09:03:30.172Z,96700.33
2019-05-25T09:08:24.762Z,96689.66
2019-05-25T09:13:19.395Z,96694.22
2019-05-25T09:18:14.020Z,96685.61
2019-05-25T09:23:08.615Z,96694.05
2019-05-25T09:28:03.212Z,96693.66
2019-05-25T09:32:57.895Z,96687.09
2019-05-25T09:37:52.482Z,96695.03
2019-05-25T09:42:47.201Z,96680.79
2019-05-25T09:47:41.927Z,96684.07
2019-05-25T09:52:36.535Z,96676.31
2019-05-25T09:57:31.145Z,96672.97
2019-05-25T10:02:25.810Z,96680.56
2019-05-25T10:07:20.405Z,96666.02
2019-05-25T10:12:16.323Z,96660.76
2019-05-25T10:17:11.290Z,96665.56
2019-05-25T10:22:06.744Z,96665.49
2019-05-25T10:27:01.378Z,96666.18
2019-05-25T10:31:55.971Z,96662.29
2019-05-25T10:36:50.634Z,96661.92
2019-05-25T10:41:45.238Z,96662.09
2019-05-25T10:46:39.835Z,96651.36
2019-05-25T10:51:34.424Z,96647.21
2019-05-25T10:56:29.023Z,96636.82
2019-05-25T11:01:23.609Z,96618.23
2019-05-25T11:06:18.202Z,96620.81
2019-05-25T11:11:12.877Z,96621.38
2019-05-25T11:16:07.486Z,96613.97
2019-05-25T11:21:02.075Z,96613.50
2019-05-25T11:25:56.665Z,96614.19
2019-05-25T11:30:51.270Z,96614.91
2019-05-25T11:35:45.940Z,96621.14
2019-05-25T11:40:40.546Z,96618.11
2019-05-25T11:45:35.210Z,96613.84
2019-05-25T11:50:29.798Z,96615.04
2019-05-25T11:55:24.539Z,96623.48
2019-05-25T12:00:25.259Z,96612.38
2019-05-25T12:05:18.231Z,96610.31
2019-05-25T12:10:13.461Z,96607.98
2019-05-25T12:15:09.571Z,96614.30
2019-05-25T12:20:05.673Z,96608.89
2019-05-25T12:25:00.273Z,96614.66
2019-05-25T12:29:54.855Z,96620.79
2019-05-25T12:34:49.450Z,96630.63
2019-05-25T12:39:44.040Z,96640.02
2019-05-25T12:44:38.676Z,96653.13
2019-05-25T12:49:49.481Z,96660.33
2019-05-25T12:54:29.573Z,96669.02
2019-05-25T12:59:24.160Z,96683.76
2019-05-25T13:04:18.764Z,96700.58
2019-05-25T13:09:13.354Z,96702.39
2019-05-25T13:14:14.509Z,96706.53
2019-05-25T13:19:04.530Z,96719.12
2019-05-25T13:23:59.129Z,96726.88
2019-05-25T13:28:53.708Z,96717.17
2019-05-25T13:33:48.310Z,96703.03
2019-05-25T13:38:42.890Z,96684.94
2019-05-25T13:43:37.542Z,96686.14
2019-05-25T13:48:32.093Z,96690.61
2019-05-25T13:53:26.680Z,96691.11
2019-05-25T13:58:21.258Z,96691.22
2019-05-25T14:03:15.903Z,96694.53
2019-05-25T14:08:10.494Z,96691.33
2019-05-25T14:13:05.155Z,96691.13
2019-05-25T14:18:00.169Z,96681.11
2019-05-25T14:22:54.781Z,96684.80
2019-05-25T14:27:49.346Z,96687.38
2019-05-25T14:32:44.008Z,96678.58
2019-05-25T14:37:38.664Z,96684.34
2019-05-25T14:42:33.280Z,96680.59
2019-05-25T14:47:27.844Z,96686.48
2019-05-25T14:52:22.462Z,96685.66
2019-05-25T14:57:17.066Z,96697.69
2019-05-25T15:02:11.677Z,96705.66
2019-05-25T15:07:06.426Z,96703.31
2019-05-25T15:12:01.112Z,96705.45
2019-05-25T15:16:55.701Z,96709.42
2019-05-25T15:21:50.371Z,96709.19
2019-05-25T15:26:45.002Z,96712.13
2019-05-25T15:31:39.672Z,96728.53
2019-05-25T15:36:34.262Z,96714.75
2019-05-25T15:41:28.866Z,96715.02
2019-05-25T15:46:23.447Z,96719.27
2019-05-25T15:51:18.055Z,96705.48
2019-05-25T15:56:12.636Z,96708.41
2019-05-25T16:01:07.308Z,96711.59
2019-05-25T16:06:01.893Z,96705.70
2019-05-25T16:10:56.493Z,96705.98
2019-05-25T16:15:51.093Z,96715.50
2019-05-25T16:20:45.698Z,96710.68
2019-05-25T16:25:40.286Z,96706.95
2019-05-25T16:30:34.901Z,96715.66
2019-05-25T16:35:29.480Z,96722.55
2019-05-25T16:40:24.613Z,96722.47
2019-05-25T16:45:20.902Z,96725.59
2019-05-25T16:50:16.729Z,96714.97
2019-05-25T16:55:11.693Z,96718.61
2019-05-25T17:00:09.804Z,96719.53
2019-05-25T17:05:04.630Z,96722.07
2019-05-25T17:09:59.230Z,96721.34
2019-05-25T17:14:53.806Z,96716.92
2019-05-25T17:19:48.403Z,96731.32
2019-05-25T17:24:42.984Z,96729.52
2019-05-25T17:29:37.584Z,96734.06
2019-05-25T17:34:32.293Z,96736.47
2019-05-25T17:39:26.886Z,96752.66
2019-05-25T17:44:21.473Z,96756.88
2019-05-25T17:49:16.087Z,96752.63
2019-05-25T17:54:10.675Z,96756.00
2019-05-25T17:59:05.359Z,96766.92
2019-05-25T18:04:07.304Z,96765.12
2019-05-25T18:08:56.291Z,96784.52
2019-05-25T18:13:50.879Z,96785.86
2019-05-25T18:18:45.481Z,96791.30
2019-05-25T18:23:40.100Z,96803.84
2019-05-25T18:28:34.744Z,96809.14
2019-05-25T18:33:29.316Z,96815.34
2019-05-25T18:38:23.906Z,96821.07
2019-05-25T18:43:18.558Z,96813.52
2019-05-25T18:48:13.160Z,96810.27
2019-05-25T18:53:07.751Z,96816.44
2019-05-25T18:58:02.482Z,96815.95
2019-05-25T19:02:57.143Z,96816.81
2019-05-25T19:07:51.744Z,96814.77
2019-05-25T19:12:46.324Z,96819.28
2019-05-25T19:17:41.029Z,96818.05
2019-05-25T19:22:35.609Z,96815.91
2019-05-25T19:27:30.210Z,96810.95
2019-05-25T19:32:24.805Z,96815.19
2019-05-25T19:37:19.663Z,96809.70
2019-05-25T19:42:14.461Z,96816.83
2019-05-25T19:47:09.069Z,96822.36
2019-05-25T19:52:04.849Z,96833.70
2019-05-25T19:56:59.446Z,96831.53
2019-05-25T20:01:54.053Z,96832.09
2019-05-25T20:06:48.677Z,96837.28
2019-05-25T20:11:43.283Z,96833.20
2019-05-25T20:16:37.911Z,96827.59
2019-05-25T20:21:32.479Z,96833.30
2019-05-25T20:26:27.158Z,96842.16
2019-05-25T20:31:21.750Z,96850.16
2019-05-25T20:36:16.357Z,96852.58
2019-05-25T20:41:10.935Z,96855.91
2019-05-25T20:46:05.615Z,96853.34
2019-05-25T20:51:00.216Z,96856.20
2019-05-25T20:55:54.808Z,96856.17
2019-05-25T21:00:49.385Z,96851.74
2019-05-25T21:05:50.162Z,96850.69
2019-05-25T21:10:40.299Z,96852.08
2019-05-25T21:15:34.911Z,96856.78
2019-05-25T21:20:29.494Z,96855.94
2019-05-25T21:25:24.118Z,96861.75
2019-05-25T21:30:20.333Z,96859.41
2019-05-25T21:35:15.532Z,96862.70
2019-05-25T21:40:11.062Z,96862.00
2019-05-25T21:45:07.492Z,96860.16
2019-05-25T21:50:02.083Z,96861.76
2019-05-25T21:54:56.690Z,96856.08
2019-05-25T21:59:51.280Z,96852.54
2019-05-25T22:04:45.894Z,96853.85
2019-05-25T22:09:40.646Z,96855.62
2019-05-25T22:14:35.323Z,96852.50
2019-05-25T22:19:29.915Z,96841.36
2019-05-25T22:24:24.522Z,96840.16
2019-05-25T22:29:19.102Z,96842.09
2019-05-25T22:34:13.782Z,96841.98
2019-05-25T22:39:09.640Z,96847.57
2019-05-25T22:44:05.486Z,96857.03
2019-05-25T22:49:00.069Z,96854.34
2019-05-25T22:53:54.664Z,96848.52
2019-05-25T22:58:49.266Z,96847.88
2019-05-25T23:03:43.879Z,96844.07
2019-05-25T23:08:38.821Z,96840.99
2019-05-25T23:13:33.615Z,96851.25
2019-05-25T23:18:28.248Z,96847.69
2019-05-25T23:23:22.853Z,96845.27
2019-05-25T23:28:17.448Z,96843.78
2019-05-25T23:33:12.827Z,96840.73
2019-05-25T23:38:07.431Z,96853.28
2019-05-25T23:43:02.037Z,96848.57
2019-05-25T23:47:56.621Z,96850.06
2019-05-25T23:52:51.403Z,96852.63
2019-05-25T23:57:46.040Z,96852.59
